Airfield :
LOGIN :

Register | Disclaimer

   EN    FR    IT 

 










Legend :    VFR   Marginal VFR   IFR   Intensive IFR   Very Intensive IFR
Visi :
Ceiling :
>= 8 km
>= 3000ft
5 to 8 km
1000 to 3000 ft
1500m to 5 km
500 to 1000 ft
800 to 1500m
200 to 500 ft
< 800m
< 200 ft
Symbols :   Thunderstorms  Fog  Heavy snow  Heavy precipitations  Wind > 20 kt
SIGMETs :     Misc.  Thunderstorms  Icing  Turbulence  Mountain Waves  Volcanic Ashes







- Airport Elevation : 538 ft
- IATA code : TNF
- Download approach charts


LFPN - Toussus Le Noble

CURRENT METAR :
  • 231400Z AUTO 30017KT 7000 RA BKN009/// BKN014/// BKN021/// ///CB 16/15 Q1015 TEMPO 2500 RA BECMG 32010G20KT BKN020

EXPIRED METARs :
  • 231330Z AUTO 30020KT 270V330 4700 R25R/1400U RA BR SCT011/// BKN017/// BKN023/// ///CB 17/15 Q1014 BECMG 32010G20KT 9999 NSW BKN020
  • 231300Z AUTO 25014G27KT 230V300 9999 -RA BKN020/// BKN034/// BKN050/// ///CB 20/18 Q1013 TEMPO 25025G40KT 2500 RA BKN006 SCT015CB
  • 231230Z AUTO 25014KT 9999 FEW009/// BKN018/// BKN033/// ///TCU 21/18 Q1013 TEMPO 25025G40KT 2500 RA BKN006 SCT015CB
  • 231200Z AUTO 25018G30KT 9999 OVC018/// ///TCU 22/18 Q1013 TEMPO 25025G40KT 2500 RA BKN006 SCT015CB
  • 231130Z AUTO 24020KT 9999 -RADZ OVC016 21/19 Q1013 TEMPO 25025G40KT 2500 RA BKN006 SCT015CB
  • 231100Z AUTO 24021G32KT 220V280 9999 OVC015 21/18 Q1012 TEMPO 2500 RA SCT015CB

TAF TAF LFPN
Valid from the 23 at 12:00 until the 23 at 21:00 UTC


231100Z 2312/2321 23020G30KT 9999 BKN012
TEMPO 2312/2315 25025G40KT 2500 RA BKN006 SCT015CB
BECMG 2315/2318 32010G20KT BKN020
ATIS : +33 1 39 56 54 70
No reported NOTAMs for that airfield.
2 SIGMETs reported for the Paris FIR (LFFF) :
 
Severe turbulence
LFFF SIGMET 2 VALID 231200/231600 LFPW
LFFF PARIS FIR/UIR SEV TURB FCST WI N5030 E00345 - N4930 E00600 - N4900 E00500 - N4945 E00300 - N5030 E00345 SFC/FL050 STNR NC=
Severe turbulence
LFFF SIGMET 1 VALID 231100/231500 LFPW
LFFF PARIS FIR/UIR SEV TURB FCST WI N4945 W00015 - N5000 W00015 - N5030 E00030 - N4945 W00015 FL350/430 STNR NC=



MET'MAP, your aeronautical weather chart ! - Copyright ORBIFLY December 2007 - Disclaimer

ORBIFLY MET'MAP TEAM :

Programming & Development : Alexandra Zaïnal
Concept & Development : Baudouin d'Aumeries
Co-Development & Prog : Marc-Olivier Méhu
Technical & hardware support : Manuel Goepfert

Contact : metmap@orbifly.com




SOURCES & CREDITS :

   NOAA